createdAt,value
2023-02-01T00:05:09.801Z,8.46
2023-02-01T06:12:45.694Z,8.95
2023-02-01T06:19:49.261Z,8.80
2023-02-01T06:26:50.903Z,9.00
2023-02-01T06:33:52.644Z,8.97
2023-02-01T06:40:54.786Z,8.88
2023-02-01T06:47:56.431Z,8.98
2023-02-01T06:54:58.055Z,8.89
2023-02-01T07:01:59.733Z,9.06
2023-02-01T07:09:01.586Z,8.96
2023-02-01T07:16:04.193Z,8.87
2023-02-01T07:23:05.900Z,9.07
2023-02-01T07:30:08.121Z,8.92
2023-02-01T07:37:09.731Z,8.79
2023-02-01T07:44:11.801Z,8.97
2023-02-01T07:51:15.149Z,9.16
2023-02-01T12:59:43.628Z,9.79
2023-02-01T13:06:54.881Z,10.14
2023-02-01T13:14:04.563Z,10.26
2023-02-01T13:21:25.583Z,10.18
2023-02-01T13:28:37.272Z,10.12
2023-02-01T13:36:03.959Z,10.17
2023-02-01T13:43:13.153Z,9.90
2023-02-01T13:50:20.897Z,10.17
2023-02-01T13:57:53.382Z,10.16
2023-02-01T14:04:55.759Z,10.25
2023-02-01T14:11:58.756Z,10.10
2023-02-01T14:19:01.098Z,10.08
2023-02-01T14:26:04.965Z,9.92
2023-02-01T14:33:21.589Z,9.91
2023-02-01T14:40:28.089Z,9.96
2023-02-01T14:47:30.436Z,9.87
2023-02-01T14:54:32.248Z,10.10
2023-02-01T15:01:39.897Z,9.89
2023-02-01T15:08:42.132Z,9.57
2023-02-01T15:15:44.056Z,9.79
2023-02-01T15:23:01.983Z,9.72
2023-02-01T15:30:18.286Z,9.50
2023-02-01T15:37:23.065Z,9.16
2023-02-01T15:44:46.764Z,9.15
2023-02-01T15:51:48.645Z,8.68
2023-02-01T15:58:53.028Z,8.66
2023-02-01T16:06:02.075Z,8.54
2023-02-01T16:13:03.657Z,8.10
2023-02-01T16:20:05.590Z,8.07
2023-02-01T16:27:08.014Z,7.76
2023-02-01T16:34:17.945Z,7.89
2023-02-01T16:41:20.587Z,8.08
2023-02-01T16:48:30.128Z,8.03
2023-02-01T16:55:31.770Z,7.67
2023-02-01T17:02:33.361Z,7.65
2023-02-01T17:09:36.875Z,7.54
2023-02-01T17:16:38.529Z,7.78
2023-02-01T17:23:40.725Z,7.85
2023-02-01T17:30:42.344Z,7.95
2023-02-01T17:37:44.120Z,7.94
2023-02-01T17:44:45.718Z,7.99
2023-02-01T17:51:47.270Z,7.88
2023-02-01T17:58:48.856Z,7.87
2023-02-01T18:05:53.438Z,7.79
2023-02-01T18:12:55.858Z,7.70
2023-02-01T18:19:58.488Z,8.13
2023-02-01T18:27:00.552Z,8.11
2023-02-01T18:34:03.054Z,8.12
2023-02-01T18:41:05.339Z,8.30
2023-02-01T18:48:07.719Z,8.35
2023-02-01T18:55:09.951Z,8.19
2023-02-01T19:02:12.923Z,8.08
2023-02-01T19:09:14.696Z,8.31
2023-02-01T19:16:16.287Z,8.21
2023-02-01T19:23:18.567Z,8.39
2023-02-01T19:30:20.539Z,8.54
2023-02-01T19:37:22.143Z,8.65
2023-02-01T19:44:23.734Z,8.53
2023-02-01T19:51:25.382Z,8.53
2023-02-01T19:58:27.195Z,8.42
2023-02-01T20:05:27.881Z,8.30
2023-02-01T20:12:29.386Z,8.55
2023-02-01T20:19:31.323Z,8.43
2023-02-01T20:26:34.424Z,8.48
2023-02-01T20:33:36.095Z,8.57
2023-02-01T20:40:37.990Z,8.52
2023-02-01T20:47:41.331Z,8.54
2023-02-01T20:54:42.873Z,8.58
2023-02-01T21:01:53.539Z,8.50
2023-02-01T21:08:54.945Z,8.34
2023-02-01T21:15:56.665Z,8.26
2023-02-01T21:22:58.227Z,8.33
2023-02-01T21:29:59.766Z,8.40
2023-02-01T21:37:01.464Z,8.05
2023-02-01T21:44:03.126Z,8.19
2023-02-01T21:51:05.665Z,8.27
2023-02-01T21:58:12.571Z,8.31
2023-02-01T22:05:14.713Z,8.12
2023-02-01T22:12:16.481Z,8.03
2023-02-01T22:19:18.117Z,8.18
2023-02-01T22:26:19.766Z,8.01
2023-02-01T22:33:21.509Z,8.02
2023-02-01T22:40:23.209Z,7.99
2023-02-01T22:47:24.879Z,8.30
2023-02-01T22:54:26.390Z,8.26
2023-02-01T23:01:28.186Z,8.27
2023-02-01T23:08:29.704Z,8.37
2023-02-01T23:15:31.420Z,8.25
2023-02-01T23:22:33.198Z,8.31
2023-02-01T23:29:34.794Z,8.32
2023-02-01T23:36:36.347Z,8.21
2023-02-01T23:43:56.696Z,8.18
2023-02-01T23:50:58.197Z,8.26
2023-02-01T23:57:59.740Z,8.19
